N1SC KPNS-KMSY
Flight info
| Callsign | N1SC |
|---|---|
| Flight time | 0h 37m |
| Altitude | 30000 |
| Route | MUURY J2 SJI Q56 HRV |
| Aircraft | HDJT/L-VGDW/C |
Departure
| Time | 2026-04-21 23:29 |
|---|---|
| Airport | Pensacola International Airport (KPNS) |
Arrival
| Time | 2026-04-22 00:07 |
|---|---|
| Airport | Louis Armstrong New Orleans International Airport (KMSY) |
| Time | Latitude | Longitude | Altitude | Speed | Heading |
|---|---|---|---|---|---|
| 2026-04-21 23:12 | 30.46766 | -87.18286 | 105 ft | 0 kts | 257° |
| 2026-04-21 23:25 | 30.46766 | -87.18287 | 105 ft | 2 kts | 263° |
| 2026-04-21 23:25 | 30.46807 | -87.18316 | 105 ft | 11 kts | 347° |
| 2026-04-21 23:25 | 30.46886 | -87.18338 | 105 ft | 12 kts | 348° |
| 2026-04-21 23:25 | 30.46962 | -87.18376 | 104 ft | 13 kts | 275° |
| 2026-04-21 23:26 | 30.47029 | -87.18423 | 103 ft | 17 kts | 347° |
| 2026-04-21 23:26 | 30.47183 | -87.18463 | 103 ft | 17 kts | 349° |
| 2026-04-21 23:26 | 30.47209 | -87.18571 | 100 ft | 25 kts | 257° |
| 2026-04-21 23:26 | 30.47162 | -87.18831 | 96 ft | 36 kts | 258° |
| 2026-04-21 23:27 | 30.47303 | -87.18960 | 93 ft | 35 kts | 345° |
| 2026-04-21 23:27 | 30.47593 | -87.19035 | 98 ft | 48 kts | 346° |
| 2026-04-21 23:27 | 30.47911 | -87.19123 | 100 ft | 46 kts | 346° |
| 2026-04-21 23:27 | 30.48208 | -87.19203 | 102 ft | 25 kts | 348° |
| 2026-04-21 23:28 | 30.48281 | -87.19082 | 97 ft | 22 kts | 83° |
| 2026-04-21 23:28 | 30.48260 | -87.19055 | 99 ft | 0 kts | 172° |
| 2026-04-21 23:28 | 30.48106 | -87.19016 | 97 ft | 61 kts | 167° |
| 2026-04-21 23:28 | 30.47410 | -87.18830 | 171 ft | 128 kts | 170° |
| 2026-04-21 23:29 | 30.46510 | -87.18561 | 660 ft | 143 kts | 167° |
| 2026-04-21 23:29 | 30.45475 | -87.18325 | 1085 ft | 163 kts | 184° |
| 2026-04-21 23:29 | 30.44445 | -87.18833 | 1798 ft | 166 kts | 221° |
| 2026-04-21 23:29 | 30.43938 | -87.20037 | 2622 ft | 176 kts | 259° |
| 2026-04-21 23:30 | 30.44158 | -87.21526 | 3220 ft | 201 kts | 291° |
| 2026-04-21 23:30 | 30.44916 | -87.22852 | 4211 ft | 191 kts | 316° |
| 2026-04-21 23:30 | 30.45838 | -87.23938 | 5203 ft | 190 kts | 318° |
| 2026-04-21 23:30 | 30.46771 | -87.25011 | 6140 ft | 185 kts | 320° |
| 2026-04-21 23:31 | 30.47646 | -87.25986 | 7229 ft | 168 kts | 321° |
| 2026-04-21 23:31 | 30.48311 | -87.27051 | 8102 ft | 167 kts | 290° |
| 2026-04-21 23:31 | 30.48717 | -87.28446 | 8472 ft | 197 kts | 299° |
| 2026-04-21 23:31 | 30.49527 | -87.29865 | 8843 ft | 227 kts | 309° |
| 2026-04-21 23:32 | 30.50547 | -87.31415 | 9210 ft | 256 kts | 308° |
| 2026-04-21 23:32 | 30.51641 | -87.33181 | 9584 ft | 282 kts | 305° |
| 2026-04-21 23:32 | 30.52798 | -87.35116 | 9969 ft | 303 kts | 304° |
| 2026-04-21 23:32 | 30.54048 | -87.37178 | 10335 ft | 321 kts | 304° |
| 2026-04-21 23:33 | 30.55369 | -87.39331 | 10821 ft | 330 kts | 304° |
| 2026-04-21 23:33 | 30.56699 | -87.41505 | 11544 ft | 330 kts | 304° |
| 2026-04-21 23:33 | 30.58022 | -87.43682 | 12368 ft | 327 kts | 304° |
| 2026-04-21 23:33 | 30.59319 | -87.45815 | 13377 ft | 320 kts | 303° |
| 2026-04-21 23:34 | 30.60587 | -87.47898 | 14369 ft | 313 kts | 303° |
| 2026-04-21 23:34 | 30.61818 | -87.49922 | 15421 ft | 301 kts | 303° |
| 2026-04-21 23:34 | 30.62998 | -87.51862 | 16296 ft | 301 kts | 303° |
| 2026-04-21 23:34 | 30.64252 | -87.53937 | 16436 ft | 322 kts | 303° |
| 2026-04-21 23:35 | 30.65544 | -87.56059 | 17133 ft | 322 kts | 303° |
| 2026-04-21 23:35 | 30.66841 | -87.58194 | 17831 ft | 323 kts | 303° |
| 2026-04-21 23:35 | 30.68136 | -87.60330 | 18525 ft | 324 kts | 302° |
| 2026-04-21 23:35 | 30.69436 | -87.62477 | 19106 ft | 325 kts | 302° |
| 2026-04-21 23:36 | 30.70743 | -87.64633 | 19662 ft | 327 kts | 302° |
| 2026-04-21 23:36 | 30.71613 | -87.66070 | 20022 ft | 329 kts | 302° |
| 2026-04-21 23:36 | 30.72934 | -87.68253 | 20562 ft | 331 kts | 302° |
| 2026-04-21 23:36 | 30.74247 | -87.70464 | 21099 ft | 332 kts | 299° |
| 2026-04-21 23:37 | 30.75270 | -87.72857 | 21685 ft | 331 kts | 289° |
| 2026-04-21 23:37 | 30.75935 | -87.75420 | 22257 ft | 331 kts | 280° |
| 2026-04-21 23:37 | 30.76217 | -87.78079 | 22809 ft | 333 kts | 271° |
| 2026-04-21 23:37 | 30.76128 | -87.80773 | 23357 ft | 335 kts | 265° |
| 2026-04-21 23:38 | 30.75951 | -87.83483 | 23893 ft | 337 kts | 266° |
| 2026-04-21 23:38 | 30.75792 | -87.86214 | 24325 ft | 340 kts | 266° |
| 2026-04-21 23:38 | 30.75624 | -87.88968 | 24742 ft | 343 kts | 266° |
| 2026-04-21 23:38 | 30.75445 | -87.91746 | 25141 ft | 346 kts | 266° |
| 2026-04-21 23:39 | 30.75268 | -87.94545 | 25520 ft | 349 kts | 266° |
| 2026-04-21 23:39 | 30.75094 | -87.97340 | 25883 ft | 351 kts | 266° |
| 2026-04-21 23:39 | 30.74905 | -88.00221 | 26236 ft | 354 kts | 264° |
| 2026-04-21 23:39 | 30.74419 | -88.02998 | 26557 ft | 357 kts | 254° |
| 2026-04-21 23:40 | 30.73548 | -88.05722 | 26863 ft | 361 kts | 250° |
| 2026-04-21 23:40 | 30.72621 | -88.08438 | 27168 ft | 363 kts | 250° |
| 2026-04-21 23:40 | 30.71712 | -88.11187 | 27465 ft | 365 kts | 251° |
| 2026-04-21 23:40 | 30.70799 | -88.13955 | 27755 ft | 367 kts | 251° |
| 2026-04-21 23:41 | 30.69872 | -88.16719 | 28026 ft | 369 kts | 250° |
| 2026-04-21 23:41 | 30.68938 | -88.19498 | 28280 ft | 371 kts | 250° |
| 2026-04-21 23:41 | 30.68000 | -88.22305 | 28523 ft | 372 kts | 251° |
| 2026-04-21 23:41 | 30.67060 | -88.25118 | 28752 ft | 374 kts | 251° |
| 2026-04-21 23:42 | 30.66115 | -88.27936 | 28970 ft | 376 kts | 251° |
| 2026-04-21 23:42 | 30.65163 | -88.30772 | 29179 ft | 377 kts | 251° |
| 2026-04-21 23:42 | 30.64208 | -88.33619 | 29377 ft | 379 kts | 251° |
| 2026-04-21 23:42 | 30.63250 | -88.36470 | 29560 ft | 380 kts | 251° |
| 2026-04-21 23:43 | 30.62285 | -88.39338 | 29737 ft | 382 kts | 251° |
| 2026-04-21 23:43 | 30.61317 | -88.42214 | 29904 ft | 383 kts | 250° |
| 2026-04-21 23:43 | 30.60347 | -88.45093 | 30058 ft | 384 kts | 251° |
| 2026-04-21 23:43 | 30.59370 | -88.47990 | 30218 ft | 385 kts | 251° |
| 2026-04-21 23:44 | 30.57418 | -88.53773 | 30286 ft | 391 kts | 251° |
| 2026-04-21 23:44 | 30.55418 | -88.59685 | 30291 ft | 395 kts | 250° |
| 2026-04-21 23:45 | 30.52385 | -88.68633 | 30009 ft | 393 kts | 250° |
| 2026-04-21 23:45 | 30.51390 | -88.71555 | 29679 ft | 386 kts | 250° |
| 2026-04-21 23:46 | 30.50413 | -88.74432 | 29335 ft | 381 kts | 250° |
| 2026-04-21 23:46 | 30.49450 | -88.77266 | 29011 ft | 376 kts | 250° |
| 2026-04-21 23:46 | 30.48491 | -88.80083 | 28690 ft | 372 kts | 250° |
| 2026-04-21 23:46 | 30.47545 | -88.82859 | 28372 ft | 369 kts | 250° |
| 2026-04-21 23:47 | 30.46605 | -88.85617 | 28065 ft | 367 kts | 250° |
| 2026-04-21 23:47 | 30.45675 | -88.88345 | 27581 ft | 359 kts | 250° |
| 2026-04-21 23:47 | 30.44767 | -88.91003 | 27078 ft | 352 kts | 250° |
| 2026-04-21 23:47 | 30.43856 | -88.93666 | 26582 ft | 355 kts | 250° |
| 2026-04-21 23:48 | 30.42959 | -88.96292 | 26105 ft | 356 kts | 250° |
| 2026-04-21 23:48 | 30.42045 | -88.98961 | 25630 ft | 357 kts | 250° |
| 2026-04-21 23:48 | 30.41129 | -89.01633 | 25163 ft | 357 kts | 250° |
| 2026-04-21 23:48 | 30.40212 | -89.04308 | 24700 ft | 357 kts | 250° |
| 2026-04-21 23:49 | 30.39302 | -89.06960 | 24259 ft | 351 kts | 250° |
| 2026-04-21 23:49 | 30.38407 | -89.09568 | 23804 ft | 345 kts | 250° |
| 2026-04-21 23:49 | 30.37523 | -89.12142 | 23266 ft | 341 kts | 250° |
| 2026-04-21 23:49 | 30.36650 | -89.14680 | 22742 ft | 337 kts | 250° |
| 2026-04-21 23:50 | 30.35786 | -89.17192 | 22226 ft | 334 kts | 250° |
| 2026-04-21 23:50 | 30.34928 | -89.19683 | 21718 ft | 331 kts | 250° |
| 2026-04-21 23:50 | 30.34078 | -89.22148 | 21219 ft | 329 kts | 250° |
| 2026-04-21 23:50 | 30.33227 | -89.24616 | 20728 ft | 330 kts | 250° |
| 2026-04-21 23:51 | 30.32372 | -89.27090 | 20239 ft | 332 kts | 250° |
| 2026-04-21 23:51 | 30.31516 | -89.29568 | 19767 ft | 332 kts | 250° |
| 2026-04-21 23:51 | 30.30670 | -89.32015 | 19312 ft | 329 kts | 250° |
| 2026-04-21 23:51 | 30.29831 | -89.34447 | 18851 ft | 321 kts | 250° |
| 2026-04-21 23:52 | 30.29005 | -89.36829 | 18373 ft | 319 kts | 250° |
| 2026-04-21 23:52 | 30.28181 | -89.39211 | 17844 ft | 317 kts | 250° |
| 2026-04-21 23:52 | 30.27364 | -89.41568 | 17336 ft | 315 kts | 249° |
| 2026-04-21 23:52 | 30.26551 | -89.43911 | 16830 ft | 313 kts | 249° |
| 2026-04-21 23:53 | 30.25743 | -89.46240 | 16330 ft | 311 kts | 249° |
| 2026-04-21 23:53 | 30.24938 | -89.48558 | 15843 ft | 309 kts | 249° |
| 2026-04-21 23:53 | 30.24137 | -89.50862 | 15361 ft | 307 kts | 249° |
| 2026-04-21 23:53 | 30.23343 | -89.53147 | 14876 ft | 305 kts | 248° |
| 2026-04-21 23:54 | 30.22553 | -89.55416 | 14408 ft | 303 kts | 248° |
| 2026-04-21 23:54 | 30.21780 | -89.57634 | 13950 ft | 301 kts | 248° |
| 2026-04-21 23:54 | 30.20998 | -89.59881 | 13421 ft | 300 kts | 248° |
| 2026-04-21 23:54 | 30.20220 | -89.62113 | 12906 ft | 300 kts | 248° |
| 2026-04-21 23:55 | 30.19439 | -89.64349 | 12399 ft | 300 kts | 247° |
| 2026-04-21 23:55 | 30.18658 | -89.66588 | 11902 ft | 301 kts | 247° |
| 2026-04-21 23:55 | 30.17873 | -89.68834 | 11419 ft | 302 kts | 247° |
| 2026-04-21 23:55 | 30.17088 | -89.71081 | 10930 ft | 303 kts | 246° |
| 2026-04-21 23:56 | 30.16296 | -89.73343 | 10462 ft | 304 kts | 246° |
| 2026-04-21 23:56 | 30.15502 | -89.75613 | 9973 ft | 305 kts | 246° |
| 2026-04-21 23:56 | 30.14706 | -89.77885 | 9448 ft | 306 kts | 246° |
| 2026-04-21 23:56 | 30.13914 | -89.80172 | 8946 ft | 305 kts | 247° |
| 2026-04-21 23:57 | 30.13207 | -89.82419 | 8445 ft | 291 kts | 248° |
| 2026-04-21 23:57 | 30.12549 | -89.84580 | 7943 ft | 280 kts | 248° |
| 2026-04-21 23:57 | 30.11886 | -89.86663 | 7451 ft | 272 kts | 247° |
| 2026-04-21 23:57 | 30.11231 | -89.88696 | 6988 ft | 266 kts | 247° |
| 2026-04-21 23:58 | 30.10604 | -89.90667 | 6624 ft | 258 kts | 247° |
| 2026-04-21 23:58 | 30.09993 | -89.92590 | 6243 ft | 253 kts | 247° |
| 2026-04-21 23:58 | 30.09379 | -89.94512 | 5870 ft | 257 kts | 247° |
| 2026-04-21 23:58 | 30.08757 | -89.96459 | 5495 ft | 259 kts | 247° |
| 2026-04-21 23:59 | 30.08133 | -89.98418 | 5123 ft | 259 kts | 247° |
| 2026-04-21 23:59 | 30.07511 | -90.00370 | 4770 ft | 260 kts | 247° |
| 2026-04-21 23:59 | 30.06891 | -90.02311 | 4384 ft | 259 kts | 246° |
| 2026-04-21 23:59 | 30.06266 | -90.04263 | 4015 ft | 259 kts | 247° |
| 2026-04-22 00:00 | 30.05645 | -90.06207 | 3648 ft | 258 kts | 246° |
| 2026-04-22 00:00 | 30.05058 | -90.08159 | 3299 ft | 257 kts | 253° |
| 2026-04-22 00:00 | 30.04763 | -90.10141 | 3279 ft | 244 kts | 259° |
| 2026-04-22 00:00 | 30.04567 | -90.12038 | 3278 ft | 232 kts | 261° |
| 2026-04-22 00:01 | 30.04503 | -90.13861 | 3259 ft | 225 kts | 272° |
| 2026-04-22 00:01 | 30.04751 | -90.15625 | 3245 ft | 219 kts | 279° |
| 2026-04-22 00:01 | 30.05055 | -90.17304 | 3241 ft | 214 kts | 279° |
| 2026-04-22 00:01 | 30.05325 | -90.18962 | 3240 ft | 207 kts | 271° |
| 2026-04-22 00:02 | 30.05354 | -90.20606 | 3240 ft | 202 kts | 266° |
| 2026-04-22 00:02 | 30.05336 | -90.22216 | 3238 ft | 199 kts | 265° |
| 2026-04-22 00:02 | 30.05314 | -90.23799 | 3238 ft | 196 kts | 265° |
| 2026-04-22 00:02 | 30.05305 | -90.25365 | 3241 ft | 193 kts | 266° |
| 2026-04-22 00:03 | 30.05292 | -90.26887 | 3241 ft | 191 kts | 265° |
| 2026-04-22 00:03 | 30.05270 | -90.28420 | 3077 ft | 192 kts | 265° |
| 2026-04-22 00:03 | 30.05228 | -90.29998 | 2601 ft | 198 kts | 265° |
| 2026-04-22 00:03 | 30.05119 | -90.31549 | 2401 ft | 184 kts | 250° |
| 2026-04-22 00:04 | 30.04463 | -90.32708 | 2142 ft | 171 kts | 215° |
| 2026-04-22 00:04 | 30.03432 | -90.33333 | 1785 ft | 165 kts | 191° |
| 2026-04-22 00:04 | 30.02377 | -90.33435 | 1765 ft | 141 kts | 167° |
| 2026-04-22 00:04 | 30.01505 | -90.33101 | 1727 ft | 120 kts | 148° |
| 2026-04-22 00:05 | 30.00891 | -90.32524 | 1486 ft | 112 kts | 134° |
| 2026-04-22 00:05 | 30.00413 | -90.31833 | 1219 ft | 109 kts | 121° |
| 2026-04-22 00:05 | 30.00183 | -90.31001 | 844 ft | 111 kts | 101° |
| 2026-04-22 00:05 | 30.00089 | -90.30115 | 591 ft | 110 kts | 101° |
| 2026-04-22 00:06 | 29.99939 | -90.29254 | 320 ft | 108 kts | 109° |
| 2026-04-22 00:06 | 29.99729 | -90.28439 | 96 ft | 103 kts | 107° |
| 2026-04-22 00:06 | 29.99555 | -90.27720 | -1 ft | 84 kts | 106° |
| 2026-04-22 00:06 | 29.99413 | -90.27133 | 7 ft | 57 kts | 105° |
| 2026-04-22 00:07 | 29.99325 | -90.26766 | 10 ft | 42 kts | 107° |
| 2026-04-22 00:07 | 29.99270 | -90.26547 | 9 ft | 18 kts | 100° |
| 2026-04-22 00:07 | 29.99347 | -90.26462 | 7 ft | 17 kts | 12° |
| 2026-04-22 00:07 | 29.99396 | -90.26447 | 7 ft | 0 kts | 14° |